Elegance — PBGJ — position and weather

sailwx.info

Track history (hours):
 
Tides and Currents Weather Stations Pressure Air Temp Water Temp Dewpoint Dewpoint Depression Visibility Wind Speed Wind Dir Waves Ship Positions

Elegance

Last reported at 2018-Apr-22 10:33 UTC. Time now 2018-Apr-23 21:29 UTC.
Position N 37°50' E 015°57'.

Type: Cargo ship. MMSI: 244317000.

Date/timePositionNaut miles runAvg speedWind from/ knotsBaromVisibWave heightAir tempDewpointWater temp
2018-Apr-22 10:33N 37°50' E 015°57'116.3
2018-Apr-22 10:31N 37°50' E 015°56'816.1
2018-Apr-22 10:00N 37°50' E 015°46'916.1
2018-Apr-22 09:27N 37°54' E 015°36'815.5
2018-Apr-22 08:55N 38°03' E 015°34'718.0
2018-Apr-22 08:30N 38°10' E 015°35'814.8
2018-Apr-22 07:59N 38°17' E 015°41'816.6
2018-Apr-22 07:30N 38°24' E 015°36'1019.4
2018-Apr-22 07:01N 38°31' E 015°28'1019.5
2018-Apr-22 06:30N 38°38' E 015°20'919.3
2018-Apr-22 06:01N 38°45' E 015°12'7319.1
2018-Apr-22 02:12N 39°40' E 014°10'418.9
2018-Apr-22 02:00N 39°43' E 014°06'918.8
2018-Apr-22 01:30N 39°50' E 013°58'1019.0
2018-Apr-22 01:00N 39°57' E 013°50'1019.2
2018-Apr-22 00:30N 40°04' E 013°41'1019.1
2018-Apr-22 00:00N 40°10' E 013°32'1019.1
2018-Apr-21 23:30N 40°18' E 013°24'918.9
2018-Apr-21 23:00N 40°25' E 013°17'1018.9
2018-Apr-21 22:30N 40°33' E 013°08'919.0
2018-Apr-21 22:00N 40°40' E 013°00'919.0
2018-Apr-21 21:30N 40°47' E 012°52'1819.2
2018-Apr-21 20:35N 40°60' E 012°36'119.3
2018-Apr-21 20:30N 41°01' E 012°35'1119.2
2018-Apr-21 19:56N 41°08' E 012°23'819.0
2018-Apr-21 19:30N 41°14' E 012°16'918.9
2018-Apr-21 19:00N 41°23' E 012°13'918.7
2018-Apr-21 18:30N 41°32' E 012°10'1319.2
2018-Apr-21 17:50N 41°43' E 012°00'66 3.8
2018-Apr-21 00:22N 42°18' E 010°46'617.0
2018-Apr-21 00:01N 42°22' E 010°39'816.8
2018-Apr-20 23:31N 42°27' E 010°30'816.9
2018-Apr-20 23:00N 42°31' E 010°20'1017.0
2018-Apr-20 22:26N 42°37' E 010°10'1015.3
2018-Apr-20 21:47N 42°45' E 010°01'1310.4
2018-Apr-20 20:30N 42°58' E 010°01'510.7
2018-Apr-20 20:00N 43°03' E 010°03'510.7
2018-Apr-20 19:30N 43°09' E 010°04'510.5
2018-Apr-20 19:00N 43°14' E 010°06'510.3
2018-Apr-20 18:30N 43°19' E 010°07'5 9.8
2018-Apr-20 18:00N 43°24' E 010°09'713.1
2018-Apr-20 17:30N 43°30' E 010°11'510.5
2018-Apr-20 17:00N 43°33' E 010°17'1 1.1
2018-Apr-20 16:24N 43°33' E 010°18'0 0.0
2018-Apr-20 15:51N 43°33' E 010°18'0 0.0
2018-Apr-20 15:30N 43°33' E 010°18'0 0.0
2018-Apr-20 14:57N 43°33' E 010°18'0 0.0
2018-Apr-20 14:30N 43°33' E 010°18'0 0.0
2018-Apr-20 14:00N 43°33' E 010°18'0 0.0
2018-Apr-20 13:27N 43°33' E 010°18'0 0.0
2018-Apr-20 13:00N 43°33' E 010°18'0 0.0
2018-Apr-20 12:30N 43°33' E 010°18'0 0.0
2018-Apr-20 12:00N 43°33' E 010°18'0 0.0
2018-Apr-20 11:30N 43°33' E 010°18'0 0.0
2018-Apr-20 11:00N 43°33' E 010°18'0 0.0
2018-Apr-20 10:30N 43°33' E 010°18'0 0.0
2018-Apr-20 10:00N 43°33' E 010°18'0 0.0
2018-Apr-20 09:30N 43°33' E 010°18'0 0.0
2018-Apr-20 09:00N 43°33' E 010°18'0 0.0
2018-Apr-20 08:30N 43°33' E 010°18'0 0.0
2018-Apr-20 08:00N 43°33' E 010°18'0 0.0
2018-Apr-20 07:30N 43°33' E 010°18'0 0.0
2018-Apr-20 07:00N 43°33' E 010°18'0 0.0
2018-Apr-20 06:30N 43°33' E 010°18'0 0.0
2018-Apr-20 06:00N 43°33' E 010°18'0 0.0
2018-Apr-20 05:30N 43°33' E 010°18'0 0.0
2018-Apr-20 05:00N 43°33' E 010°18'0 0.3
2018-Apr-20 04:30N 43°33' E 010°18'2 4.2
2018-Apr-20 04:00N 43°32' E 010°16'612.0
2018-Apr-20 03:30N 43°30' E 010°08'815.5
2018-Apr-20 03:00N 43°30' E 009°58'815.7
2018-Apr-20 02:31N 43°32' E 009°47'815.6
2018-Apr-20 02:01N 43°33' E 009°36'815.5
2018-Apr-20 01:29N 43°34' E 009°25'715.8
2018-Apr-20 01:01N 43°35' E 009°15'815.7
2018-Apr-20 00:31N 43°35' E 009°04'815.6
2018-Apr-20 00:00N 43°36' E 008°53'815.6
2018-Apr-19 23:30N 43°37' E 008°43'815.9
2018-Apr-19 23:01N 43°38' E 008°32'815.7
2018-Apr-19 22:30N 43°39' E 008°21'40 2.2
2018-Apr-19 04:48N 43°44' E 007°27'412.3
2018-Apr-19 04:30N 43°40' E 007°27'916.9
2018-Apr-19 04:00N 43°32' E 007°23'816.7
2018-Apr-19 03:30N 43°24' E 007°19'815.8
2018-Apr-19 03:00N 43°17' E 007°16'816.3
2018-Apr-19 02:31N 43°09' E 007°13'916.8
2018-Apr-19 02:00N 43°01' E 007°09'816.8
2018-Apr-19 01:30N 42°53' E 007°06'8211.2
2018-Apr-18 18:09N 43°05' E 005°15'210.0
2018-Apr-18 17:59N 43°06' E 005°13'5 9.8
2018-Apr-18 17:30N 43°10' E 005°10'5 9.1
2018-Apr-18 17:00N 43°14' E 005°09'611.8
2018-Apr-18 16:30N 43°19' E 005°14'5 9.2
2018-Apr-18 16:00N 43°21' E 005°20'0 0.3
2018-Apr-18 14:29N 43°21' E 005°20'0 0.0
2018-Apr-18 11:17N 43°21' E 005°20'0 0.0
2018-Apr-18 10:50N 43°21' E 005°20'0 0.0
2018-Apr-18 09:47N 43°21' E 005°20'0 0.0
2018-Apr-18 09:23N 43°21' E 005°20'0 0.0
2018-Apr-18 08:53N 43°21' E 005°20'0 0.0
2018-Apr-18 08:23N 43°21' E 005°20'0 0.0
2018-Apr-18 07:59N 43°21' E 005°20'0 0.0
2018-Apr-18 07:23N 43°21' E 005°20'0 0.0
2018-Apr-18 06:59N 43°21' E 005°20'0 0.0
2018-Apr-18 06:29N 43°21' E 005°20'0 0.0
2018-Apr-18 05:59N 43°21' E 005°20'0 0.0
2018-Apr-18 05:29N 43°21' E 005°20'1 2.1
2018-Apr-18 05:00N 43°21' E 005°19'4 7.1
2018-Apr-18 04:31N 43°19' E 005°15'712.3
2018-Apr-18 03:57N 43°13' E 005°10'716.1
2018-Apr-18 03:30N 43°07' E 005°04'816.4
2018-Apr-18 03:00N 43°01' E 004°57'816.1
2018-Apr-18 02:30N 42°55' E 004°50'815.6
2018-Apr-18 01:59N 42°49' E 004°42'13815.9
2018-Apr-17 17:16N 41°19' E 002°21'415.9
2018-Apr-17 17:00N 41°16' E 002°16'6 2.4
2018-Apr-17 14:24N 41°21' E 002°10'0 0.0
2018-Apr-17 12:24N 41°21' E 002°10'0 0.0
2018-Apr-17 11:57N 41°21' E 002°10'0 0.0
2018-Apr-17 11:30N 41°21' E 002°10'0 0.0
2018-Apr-17 10:59N 41°21' E 002°10'0 0.0
2018-Apr-17 10:30N 41°21' E 002°10'0 0.0
2018-Apr-17 10:00N 41°21' E 002°10'0 0.0
2018-Apr-17 09:30N 41°21' E 002°10'0 0.0
2018-Apr-17 09:00N 41°21' E 002°10'0 0.0
2018-Apr-17 08:30N 41°21' E 002°10'0 0.0
2018-Apr-17 08:00N 41°21' E 002°10'0 0.0
2018-Apr-17 07:29N 41°21' E 002°10'0 0.0
2018-Apr-17 06:59N 41°21' E 002°10'0 0.0
2018-Apr-17 06:30N 41°21' E 002°10'0 0.0
2018-Apr-17 05:59N 41°21' E 002°10'0 0.8
2018-Apr-17 05:30N 41°21' E 002°10'3 5.1
2018-Apr-17 05:00N 41°18' E 002°11'510.7
2018-Apr-17 04:31N 41°13' E 002°11'815.1
2018-Apr-17 04:01N 41°06' E 002°07'815.2
2018-Apr-17 03:31N 40°59' E 002°03'815.7
2018-Apr-17 03:00N 40°52' E 001°58'18015.6
2018-Apr-16 15:25N 38°14' E 000°07'615.5
2018-Apr-16 15:00N 38°08' E 000°02'815.4
2018-Apr-16 14:30N 38°02' W 000°03'815.9
2018-Apr-16 13:58N 37°55' W 000°09'715.8
2018-Apr-16 13:30N 37°49' W 000°15'816.0
2018-Apr-16 13:00N 37°43' W 000°22'816.0
2018-Apr-16 12:30N 37°36' W 000°27'815.7
2018-Apr-16 12:00N 37°31' W 000°34'816.4
2018-Apr-16 11:30N 37°25' W 000°41'815.9
2018-Apr-16 11:00N 37°19' W 000°49'816.2
2018-Apr-16 10:30N 37°14' W 000°56'816.2
2018-Apr-16 10:00N 37°09' W 001°04'1016.0
2018-Apr-16 09:22N 37°04' W 001°15'18016.4
2018-Apr-15 22:25N 36°05' W 004°46'716.9
2018-Apr-15 22:00N 36°03' W 004°55'917.2
2018-Apr-15 21:29N 36°02' W 005°06'817.2
2018-Apr-15 21:01N 35°60' W 005°15'918.6
2018-Apr-15 20:31N 35°57' W 005°27'1016.6
2018-Apr-15 19:56N 35°54' W 005°38'4 0.2
2018-Apr-14 23:16N 35°57' W 005°35'414.0
2018-Apr-14 23:00N 35°59' W 005°31'713.0
2018-Apr-14 22:30N 36°02' W 005°24'611.8
2018-Apr-14 22:00N 36°08' W 005°23'1 2.3
2018-Apr-14 21:27N 36°09' W 005°22'0 0.0
2018-Apr-14 20:56N 36°09' W 005°22'0 0.0
2018-Apr-14 20:26N 36°09' W 005°22'0 0.0
2018-Apr-14 19:56N 36°09' W 005°22'0 0.0
2018-Apr-14 19:26N 36°09' W 005°22'0 0.0
2018-Apr-14 18:56N 36°09' W 005°22'0 0.0
2018-Apr-14 18:26N 36°09' W 005°22'0 0.0
2018-Apr-14 17:56N 36°09' W 005°22'0 0.0
2018-Apr-14 17:26N 36°09' W 005°22'0 0.0
2018-Apr-14 16:50N 36°09' W 005°22'0 0.0
2018-Apr-14 16:20N 36°09' W 005°22'0 0.0
2018-Apr-14 15:56N 36°09' W 005°22'0 0.0
2018-Apr-14 15:26N 36°09' W 005°22'0 0.0
2018-Apr-14 14:56N 36°09' W 005°22'0 0.0
2018-Apr-14 14:27N 36°09' W 005°22'0 0.0
2018-Apr-14 13:56N 36°09' W 005°22'0 0.0
2018-Apr-14 13:27N 36°09' W 005°22'0 0.0
2018-Apr-14 12:56N 36°09' W 005°22'0 0.0
2018-Apr-14 12:14N 36°09' W 005°22'0 0.0
2018-Apr-14 11:56N 36°09' W 005°22'0 0.0
2018-Apr-14 11:26N 36°09' W 005°22'0 0.0
2018-Apr-14 10:56N 36°09' W 005°22'0 0.0
2018-Apr-14 10:29N 36°09' W 005°22'1 2.3
2018-Apr-14 10:00N 36°08' W 005°23'4 7.4
2018-Apr-14 09:30N 36°05' W 005°20'22612.4
2018-Apr-13 15:21N 37°33' W 001°01'3 8.2
2018-Apr-13 14:58N 37°35' W 000°59'0 0.1
2018-Apr-13 05:47N 37°36' W 000°59'3 4.9
2018-Apr-13 05:16N 37°33' W 000°59'3 7.9
2018-Apr-13 04:51N 37°32' W 000°55'617.5
2018-Apr-13 04:30N 37°31' W 000°48'1019.1
2018-Apr-13 04:00N 37°33' W 000°36'918.9
2018-Apr-13 03:30N 37°40' W 000°28'1018.9
2018-Apr-13 03:00N 37°48' W 000°22'1318.9
2018-Apr-13 02:18N 37°58' W 000°10'17218.0
2018-Apr-12 16:46N 39°54' E 002°33'519.4
2018-Apr-12 16:30N 39°56' E 002°38'1019.2
2018-Apr-12 15:59N 40°01' E 002°50'  
Track history (hours):
 
Tides and Currents Weather Stations Pressure Air Temp Water Temp Dewpoint Dewpoint Depression Visibility Wind Speed Wind Dir Waves Ship Positions

Elegance

Last reported at 2018-Apr-22 10:33 UTC. Time now 2018-Apr-23 21:29 UTC.
Position N 37°50' E 015°57'.

Type: Cargo ship. MMSI: 244317000.

Date/timePositionNaut miles runAvg speedWind from/ knotsBaromVisibWave heightAir tempDewpointWater temp
2018-Apr-22 10:33N 37°50' E 015°57'116.3
2018-Apr-22 10:31N 37°50' E 015°56'816.1
2018-Apr-22 10:00N 37°50' E 015°46'916.1
2018-Apr-22 09:27N 37°54' E 015°36'815.5
2018-Apr-22 08:55N 38°03' E 015°34'718.0
2018-Apr-22 08:30N 38°10' E 015°35'814.8
2018-Apr-22 07:59N 38°17' E 015°41'816.6
2018-Apr-22 07:30N 38°24' E 015°36'1019.4
2018-Apr-22 07:01N 38°31' E 015°28'1019.5
2018-Apr-22 06:30N 38°38' E 015°20'919.3
2018-Apr-22 06:01N 38°45' E 015°12'7319.1
2018-Apr-22 02:12N 39°40' E 014°10'418.9
2018-Apr-22 02:00N 39°43' E 014°06'918.8
2018-Apr-22 01:30N 39°50' E 013°58'1019.0
2018-Apr-22 01:00N 39°57' E 013°50'1019.2
2018-Apr-22 00:30N 40°04' E 013°41'1019.1
2018-Apr-22 00:00N 40°10' E 013°32'1019.1
2018-Apr-21 23:30N 40°18' E 013°24'918.9
2018-Apr-21 23:00N 40°25' E 013°17'1018.9
2018-Apr-21 22:30N 40°33' E 013°08'919.0
2018-Apr-21 22:00N 40°40' E 013°00'919.0
2018-Apr-21 21:30N 40°47' E 012°52'1819.2
2018-Apr-21 20:35N 40°60' E 012°36'119.3
2018-Apr-21 20:30N 41°01' E 012°35'1119.2
2018-Apr-21 19:56N 41°08' E 012°23'819.0
2018-Apr-21 19:30N 41°14' E 012°16'918.9
2018-Apr-21 19:00N 41°23' E 012°13'918.7
2018-Apr-21 18:30N 41°32' E 012°10'1319.2
2018-Apr-21 17:50N 41°43' E 012°00'66 3.8
2018-Apr-21 00:22N 42°18' E 010°46'617.0
2018-Apr-21 00:01N 42°22' E 010°39'816.8
2018-Apr-20 23:31N 42°27' E 010°30'816.9
2018-Apr-20 23:00N 42°31' E 010°20'1017.0
2018-Apr-20 22:26N 42°37' E 010°10'1015.3
2018-Apr-20 21:47N 42°45' E 010°01'1310.4
2018-Apr-20 20:30N 42°58' E 010°01'510.7
2018-Apr-20 20:00N 43°03' E 010°03'510.7
2018-Apr-20 19:30N 43°09' E 010°04'510.5
2018-Apr-20 19:00N 43°14' E 010°06'510.3
2018-Apr-20 18:30N 43°19' E 010°07'5 9.8
2018-Apr-20 18:00N 43°24' E 010°09'713.1
2018-Apr-20 17:30N 43°30' E 010°11'510.5
2018-Apr-20 17:00N 43°33' E 010°17'1 1.1
2018-Apr-20 16:24N 43°33' E 010°18'0 0.0
2018-Apr-20 15:51N 43°33' E 010°18'0 0.0
2018-Apr-20 15:30N 43°33' E 010°18'0 0.0
2018-Apr-20 14:57N 43°33' E 010°18'0 0.0
2018-Apr-20 14:30N 43°33' E 010°18'0 0.0
2018-Apr-20 14:00N 43°33' E 010°18'0 0.0
2018-Apr-20 13:27N 43°33' E 010°18'0 0.0
2018-Apr-20 13:00N 43°33' E 010°18'0 0.0
2018-Apr-20 12:30N 43°33' E 010°18'0 0.0
2018-Apr-20 12:00N 43°33' E 010°18'0 0.0
2018-Apr-20 11:30N 43°33' E 010°18'0 0.0
2018-Apr-20 11:00N 43°33' E 010°18'0 0.0
2018-Apr-20 10:30N 43°33' E 010°18'0 0.0
2018-Apr-20 10:00N 43°33' E 010°18'0 0.0
2018-Apr-20 09:30N 43°33' E 010°18'0 0.0
2018-Apr-20 09:00N 43°33' E 010°18'0 0.0
2018-Apr-20 08:30N 43°33' E 010°18'0 0.0
2018-Apr-20 08:00N 43°33' E 010°18'0 0.0
2018-Apr-20 07:30N 43°33' E 010°18'0 0.0
2018-Apr-20 07:00N 43°33' E 010°18'0 0.0
2018-Apr-20 06:30N 43°33' E 010°18'0 0.0
2018-Apr-20 06:00N 43°33' E 010°18'0 0.0
2018-Apr-20 05:30N 43°33' E 010°18'0 0.0
2018-Apr-20 05:00N 43°33' E 010°18'0 0.3
2018-Apr-20 04:30N 43°33' E 010°18'2 4.2
2018-Apr-20 04:00N 43°32' E 010°16'612.0
2018-Apr-20 03:30N 43°30' E 010°08'815.5
2018-Apr-20 03:00N 43°30' E 009°58'815.7
2018-Apr-20 02:31N 43°32' E 009°47'815.6
2018-Apr-20 02:01N 43°33' E 009°36'815.5
2018-Apr-20 01:29N 43°34' E 009°25'715.8
2018-Apr-20 01:01N 43°35' E 009°15'815.7
2018-Apr-20 00:31N 43°35' E 009°04'815.6
2018-Apr-20 00:00N 43°36' E 008°53'815.6
2018-Apr-19 23:30N 43°37' E 008°43'815.9
2018-Apr-19 23:01N 43°38' E 008°32'815.7
2018-Apr-19 22:30N 43°39' E 008°21'40 2.2
2018-Apr-19 04:48N 43°44' E 007°27'412.3
2018-Apr-19 04:30N 43°40' E 007°27'916.9
2018-Apr-19 04:00N 43°32' E 007°23'816.7
2018-Apr-19 03:30N 43°24' E 007°19'815.8
2018-Apr-19 03:00N 43°17' E 007°16'816.3
2018-Apr-19 02:31N 43°09' E 007°13'916.8
2018-Apr-19 02:00N 43°01' E 007°09'816.8
2018-Apr-19 01:30N 42°53' E 007°06'8211.2
2018-Apr-18 18:09N 43°05' E 005°15'210.0
2018-Apr-18 17:59N 43°06' E 005°13'5 9.8
2018-Apr-18 17:30N 43°10' E 005°10'5 9.1
2018-Apr-18 17:00N 43°14' E 005°09'611.8
2018-Apr-18 16:30N 43°19' E 005°14'5 9.2
2018-Apr-18 16:00N 43°21' E 005°20'0 0.3
2018-Apr-18 14:29N 43°21' E 005°20'0 0.0
2018-Apr-18 11:17N 43°21' E 005°20'0 0.0
2018-Apr-18 10:50N 43°21' E 005°20'0 0.0
2018-Apr-18 09:47N 43°21' E 005°20'0 0.0
2018-Apr-18 09:23N 43°21' E 005°20'0 0.0
2018-Apr-18 08:53N 43°21' E 005°20'0 0.0
2018-Apr-18 08:23N 43°21' E 005°20'0 0.0
2018-Apr-18 07:59N 43°21' E 005°20'0 0.0
2018-Apr-18 07:23N 43°21' E 005°20'0 0.0
2018-Apr-18 06:59N 43°21' E 005°20'0 0.0
2018-Apr-18 06:29N 43°21' E 005°20'0 0.0
2018-Apr-18 05:59N 43°21' E 005°20'0 0.0
2018-Apr-18 05:29N 43°21' E 005°20'1 2.1
2018-Apr-18 05:00N 43°21' E 005°19'4 7.1
2018-Apr-18 04:31N 43°19' E 005°15'712.3
2018-Apr-18 03:57N 43°13' E 005°10'716.1
2018-Apr-18 03:30N 43°07' E 005°04'816.4
2018-Apr-18 03:00N 43°01' E 004°57'816.1
2018-Apr-18 02:30N 42°55' E 004°50'815.6
2018-Apr-18 01:59N 42°49' E 004°42'13815.9
2018-Apr-17 17:16N 41°19' E 002°21'415.9
2018-Apr-17 17:00N 41°16' E 002°16'6 2.4
2018-Apr-17 14:24N 41°21' E 002°10'0 0.0
2018-Apr-17 12:24N 41°21' E 002°10'0 0.0
2018-Apr-17 11:57N 41°21' E 002°10'0 0.0
2018-Apr-17 11:30N 41°21' E 002°10'0 0.0
2018-Apr-17 10:59N 41°21' E 002°10'0 0.0
2018-Apr-17 10:30N 41°21' E 002°10'0 0.0
2018-Apr-17 10:00N 41°21' E 002°10'0 0.0
2018-Apr-17 09:30N 41°21' E 002°10'0 0.0
2018-Apr-17 09:00N 41°21' E 002°10'0 0.0
2018-Apr-17 08:30N 41°21' E 002°10'0 0.0
2018-Apr-17 08:00N 41°21' E 002°10'0 0.0
2018-Apr-17 07:29N 41°21' E 002°10'0 0.0
2018-Apr-17 06:59N 41°21' E 002°10'0 0.0
2018-Apr-17 06:30N 41°21' E 002°10'0 0.0
2018-Apr-17 05:59N 41°21' E 002°10'0 0.8
2018-Apr-17 05:30N 41°21' E 002°10'3 5.1
2018-Apr-17 05:00N 41°18' E 002°11'510.7
2018-Apr-17 04:31N 41°13' E 002°11'815.1
2018-Apr-17 04:01N 41°06' E 002°07'815.2
2018-Apr-17 03:31N 40°59' E 002°03'815.7
2018-Apr-17 03:00N 40°52' E 001°58'18015.6
2018-Apr-16 15:25N 38°14' E 000°07'615.5
2018-Apr-16 15:00N 38°08' E 000°02'815.4
2018-Apr-16 14:30N 38°02' W 000°03'815.9
2018-Apr-16 13:58N 37°55' W 000°09'715.8
2018-Apr-16 13:30N 37°49' W 000°15'816.0
2018-Apr-16 13:00N 37°43' W 000°22'816.0
2018-Apr-16 12:30N 37°36' W 000°27'815.7
2018-Apr-16 12:00N 37°31' W 000°34'816.4
2018-Apr-16 11:30N 37°25' W 000°41'815.9
2018-Apr-16 11:00N 37°19' W 000°49'816.2
2018-Apr-16 10:30N 37°14' W 000°56'816.2
2018-Apr-16 10:00N 37°09' W 001°04'1016.0
2018-Apr-16 09:22N 37°04' W 001°15'18016.4
2018-Apr-15 22:25N 36°05' W 004°46'716.9
2018-Apr-15 22:00N 36°03' W 004°55'917.2
2018-Apr-15 21:29N 36°02' W 005°06'817.2
2018-Apr-15 21:01N 35°60' W 005°15'918.6
2018-Apr-15 20:31N 35°57' W 005°27'1016.6
2018-Apr-15 19:56N 35°54' W 005°38'4 0.2
2018-Apr-14 23:16N 35°57' W 005°35'414.0
2018-Apr-14 23:00N 35°59' W 005°31'713.0
2018-Apr-14 22:30N 36°02' W 005°24'611.8
2018-Apr-14 22:00N 36°08' W 005°23'1 2.3
2018-Apr-14 21:27N 36°09' W 005°22'0 0.0
2018-Apr-14 20:56N 36°09' W 005°22'0 0.0
2018-Apr-14 20:26N 36°09' W 005°22'0 0.0
2018-Apr-14 19:56N 36°09' W 005°22'0 0.0
2018-Apr-14 19:26N 36°09' W 005°22'0 0.0
2018-Apr-14 18:56N 36°09' W 005°22'0 0.0
2018-Apr-14 18:26N 36°09' W 005°22'0 0.0
2018-Apr-14 17:56N 36°09' W 005°22'0 0.0
2018-Apr-14 17:26N 36°09' W 005°22'0 0.0
2018-Apr-14 16:50N 36°09' W 005°22'0 0.0
2018-Apr-14 16:20N 36°09' W 005°22'0 0.0
2018-Apr-14 15:56N 36°09' W 005°22'0 0.0
2018-Apr-14 15:26N 36°09' W 005°22'0 0.0
2018-Apr-14 14:56N 36°09' W 005°22'0 0.0
2018-Apr-14 14:27N 36°09' W 005°22'0 0.0
2018-Apr-14 13:56N 36°09' W 005°22'0 0.0
2018-Apr-14 13:27N 36°09' W 005°22'0 0.0
2018-Apr-14 12:56N 36°09' W 005°22'0 0.0
2018-Apr-14 12:14N 36°09' W 005°22'0 0.0
2018-Apr-14 11:56N 36°09' W 005°22'0 0.0
2018-Apr-14 11:26N 36°09' W 005°22'0 0.0
2018-Apr-14 10:56N 36°09' W 005°22'0 0.0
2018-Apr-14 10:29N 36°09' W 005°22'1 2.3
2018-Apr-14 10:00N 36°08' W 005°23'4 7.4
2018-Apr-14 09:30N 36°05' W 005°20'22612.4
2018-Apr-13 15:21N 37°33' W 001°01'3 8.2
2018-Apr-13 14:58N 37°35' W 000°59'0 0.1
2018-Apr-13 05:47N 37°36' W 000°59'3 4.9
2018-Apr-13 05:16N 37°33' W 000°59'3 7.9
2018-Apr-13 04:51N 37°32' W 000°55'617.5
2018-Apr-13 04:30N 37°31' W 000°48'1019.1
2018-Apr-13 04:00N 37°33' W 000°36'918.9
2018-Apr-13 03:30N 37°40' W 000°28'1018.9
2018-Apr-13 03:00N 37°48' W 000°22'1318.9
2018-Apr-13 02:18N 37°58' W 000°10'17218.0
2018-Apr-12 16:46N 39°54' E 002°33'519.4
2018-Apr-12 16:30N 39°56' E 002°38'1019.2
2018-Apr-12 15:59N 40°01' E 002°50'  

Dump ship's entire track history